Time;durP1;ratioP1;P1;durP2;ratioP2;P2;SDS_P1;SDS_P2;PMS_P1;PMS_P2;Temp;Humidity;BMP_temperature;BMP_pressure;BME280_temperature;BME280_humidity;BME280_pressure;Samples;Min_cycle;Max_cycle;Signal;HPM_P1;HPM_P2
2021/12/03 00:00:30;;;;;;;6.10;4.50;;;0.40;99.90;;;;;;4930164;28;89229;-34
2021/12/03 00:02:56;;;;;;;6.50;4.40;;;0.40;99.90;;;;;;4930155;28;88580;-34
2021/12/03 00:05:22;;;;;;;4.88;4.38;;;0.40;99.90;;;;;;4931278;28;88411;-34
2021/12/03 00:07:48;;;;;;;7.18;4.47;;;0.40;99.90;;;;;;4930469;28;89215;-33
2021/12/03 00:10:15;;;;;;;5.43;4.28;;;0.50;99.90;;;;;;4930505;28;89451;-34
2021/12/03 00:12:42;;;;;;;5.43;4.72;;;0.50;99.90;;;;;;4930691;28;88815;-33
2021/12/03 00:15:11;;;;;;;8.05;4.22;;;0.50;99.90;;;;;;4928911;28;87718;-34
2021/12/03 00:17:37;;;;;;;9.50;4.68;;;0.60;99.90;;;;;;4930216;28;87667;-34
2021/12/03 00:20:06;;;;;;;6.13;5.13;;;0.50;99.90;;;;;;4914822;28;89828;-33
2021/12/03 00:22:31;;;;;;;7.40;5.22;;;0.50;99.90;;;;;;4931406;28;88405;-33
2021/12/03 00:24:57;;;;;;;5.53;5.00;;;0.50;99.90;;;;;;4929749;28;88369;-34
2021/12/03 00:27:23;;;;;;;5.97;5.35;;;0.50;99.90;;;;;;4929759;28;88114;-33
2021/12/03 00:29:48;;;;;;;6.07;4.45;;;0.40;99.90;;;;;;4930214;28;89186;-33
2021/12/03 00:32:14;;;;;;;6.18;5.18;;;0.40;99.90;;;;;;4930367;28;88377;-34
2021/12/03 00:34:39;;;;;;;7.97;5.63;;;0.40;99.90;;;;;;4930511;28;88913;-35
2021/12/03 00:37:05;;;;;;;14.48;5.80;;;0.40;99.90;;;;;;4930818;28;88008;-34
2021/12/03 00:39:31;;;;;;;9.48;4.82;;;0.40;99.90;;;;;;4930217;28;89229;-34
2021/12/03 00:42:02;;;;;;;7.55;5.10;;;0.40;99.90;;;;;;4930146;28;89138;-33
2021/12/03 00:44:30;;;;;;;6.22;5.43;;;0.40;99.90;;;;;;4930913;28;88767;-34
2021/12/03 00:46:56;;;;;;;7.37;6.17;;;0.40;99.90;;;;;;4929779;28;88320;-34
2021/12/03 00:49:22;;;;;;;7.47;5.65;;;0.40;99.90;;;;;;4930206;28;89254;-34
2021/12/03 00:51:48;;;;;;;7.68;5.45;;;0.40;99.90;;;;;;4930275;28;88757;-33
2021/12/03 00:54:15;;;;;;;9.48;6.65;;;0.40;99.90;;;;;;4929917;28;88439;-33
2021/12/03 00:56:41;;;;;;;10.82;6.80;;;0.40;99.90;;;;;;4929432;28;88898;-34
2021/12/03 00:59:06;;;;;;;8.60;5.97;;;0.50;99.90;;;;;;4913553;28;90835;-34
2021/12/03 01:01:32;;;;;;;7.70;6.90;;;0.50;99.90;;;;;;4929318;28;88913;-33
2021/12/03 01:03:58;;;;;;;12.40;6.40;;;0.50;99.90;;;;;;4930779;28;88735;-33
2021/12/03 01:06:24;;;;;;;6.82;6.22;;;0.50;99.90;;;;;;4918563;28;88714;-32
2021/12/03 01:08:50;;;;;;;11.93;6.30;;;0.50;99.90;;;;;;4910664;28;87963;-34
2021/12/03 01:11:16;;;;;;;7.47;6.68;;;0.60;99.90;;;;;;4925918;28;88924;-33
2021/12/03 01:13:43;;;;;;;6.95;6.32;;;0.60;99.90;;;;;;4911058;28;87047;-34
2021/12/03 01:18:40;;;;;;;14.52;8.27;;;0.60;99.90;;;;;;4928590;28;88316;-34
2021/12/03 01:21:07;;;;;;;13.90;7.45;;;0.60;99.90;;;;;;4929949;28;89580;-34
2021/12/03 01:23:33;;;;;;;7.72;7.03;;;0.60;99.90;;;;;;4929164;28;89283;-34
2021/12/03 01:25:59;;;;;;;11.85;7.63;;;0.60;99.90;;;;;;4930599;28;88498;-33
2021/12/03 01:28:26;;;;;;;7.68;6.93;;;0.60;99.90;;;;;;4932306;28;89469;-33
2021/12/03 01:30:53;;;;;;;11.17;7.77;;;0.60;99.90;;;;;;4933730;28;88567;-34
2021/12/03 01:33:19;;;;;;;8.57;7.65;;;0.70;99.90;;;;;;4933188;28;87017;-34
2021/12/03 01:35:45;;;;;;;11.38;8.38;;;0.70;99.90;;;;;;4932883;28;88998;-33
2021/12/03 01:38:10;;;;;;;11.77;8.60;;;0.60;99.90;;;;;;4933466;28;89108;-33
2021/12/03 01:40:37;;;;;;;11.02;8.18;;;0.70;99.90;;;;;;4932995;28;88408;-33
2021/12/03 01:43:05;;;;;;;13.20;9.00;;;0.70;99.90;;;;;;4931917;28;88148;-34
2021/12/03 01:45:35;;;;;;;10.95;8.07;;;0.70;99.90;;;;;;4932576;28;89016;-34
2021/12/03 01:48:02;;;;;;;14.82;11.15;;;0.70;99.90;;;;;;4932151;28;90248;-34
2021/12/03 01:50:35;;;;;;;12.65;10.60;;;0.70;99.90;;;;;;4931569;28;88543;-33
2021/12/03 01:53:02;;;;;;;13.43;10.68;;;0.70;99.90;;;;;;4932140;28;88586;-33
2021/12/03 01:55:27;;;;;;;12.43;11.25;;;0.70;99.90;;;;;;4931359;28;88064;-34
2021/12/03 01:57:53;;;;;;;13.20;11.05;;;0.70;99.90;;;;;;4932359;28;89484;-34
2021/12/03 02:00:29;;;;;;;13.65;12.23;;;0.70;99.90;;;;;;4915253;28;88743;-34
2021/12/03 02:02:55;;;;;;;13.90;11.57;;;0.70;99.90;;;;;;4931717;28;89038;-34
2021/12/03 02:05:21;;;;;;;17.25;12.93;;;0.80;99.90;;;;;;4932710;28;88468;-33
2021/12/03 02:07:47;;;;;;;17.70;12.50;;;0.80;99.90;;;;;;4930822;28;89152;-33
2021/12/03 02:10:15;;;;;;;13.98;11.65;;;0.80;99.90;;;;;;4931508;28;89441;-34
2021/12/03 02:12:42;;;;;;;22.65;14.05;;;0.80;99.90;;;;;;4932126;28;89870;-33
2021/12/03 02:15:09;;;;;;;17.33;12.90;;;0.80;99.90;;;;;;4932286;28;87912;-34
2021/12/03 02:17:35;;;;;;;14.68;12.90;;;0.80;99.90;;;;;;4930552;28;89268;-33
2021/12/03 02:20:00;;;;;;;16.58;13.65;;;0.80;99.90;;;;;;4932418;28;88723;-33
2021/12/03 02:22:27;;;;;;;20.48;14.35;;;0.80;99.90;;;;;;4931070;28;87376;-35
2021/12/03 02:24:52;;;;;;;19.75;14.70;;;0.80;99.90;;;;;;4932512;28;87682;-33
2021/12/03 02:27:18;;;;;;;16.75;12.68;;;0.80;99.90;;;;;;4931877;28;89188;-33
2021/12/03 02:29:44;;;;;;;14.65;13.15;;;0.80;99.90;;;;;;4931441;28;88893;-34
2021/12/03 02:32:10;;;;;;;19.05;14.57;;;0.80;99.90;;;;;;4931790;28;88613;-33
2021/12/03 02:34:36;;;;;;;18.40;14.15;;;0.80;99.90;;;;;;4930710;28;87960;-33
2021/12/03 02:37:03;;;;;;;14.25;12.70;;;0.80;99.90;;;;;;4930968;28;89370;-32
2021/12/03 02:39:29;;;;;;;18.70;15.65;;;0.80;99.90;;;;;;4931500;28;88756;-31
2021/12/03 02:41:55;;;;;;;16.30;14.70;;;0.80;99.90;;;;;;4931560;28;88510;-33
2021/12/03 02:44:21;;;;;;;20.67;16.30;;;0.70;99.90;;;;;;4932175;28;87973;-33
2021/12/03 02:46:46;;;;;;;19.98;15.75;;;0.80;99.90;;;;;;4930529;28;89259;-33
2021/12/03 02:49:14;;;;;;;18.20;15.13;;;0.80;99.90;;;;;;4931553;28;87947;-34
2021/12/03 02:51:43;;;;;;;19.13;16.40;;;0.70;99.90;;;;;;4930685;28;88639;-34
2021/12/03 02:54:10;;;;;;;17.13;14.95;;;0.80;99.90;;;;;;4931632;28;88724;-32
2021/12/03 02:56:36;;;;;;;19.17;17.17;;;0.80;99.90;;;;;;4930301;28;89759;-33
2021/12/03 02:59:04;;;;;;;20.52;18.42;;;0.80;99.90;;;;;;4946378;28;88342;-34
2021/12/03 03:01:30;;;;;;;18.98;17.20;;;0.80;99.90;;;;;;4930907;28;89190;-34
2021/12/03 03:03:56;;;;;;;24.83;18.13;;;0.80;99.90;;;;;;4931167;28;88321;-31
2021/12/03 03:06:21;;;;;;;19.67;17.63;;;0.70;99.90;;;;;;4930305;28;89982;-34
2021/12/03 03:08:48;;;;;;;24.65;19.77;;;0.70;99.90;;;;;;4931213;28;87974;-34
2021/12/03 03:11:16;;;;;;;20.23;18.13;;;0.70;99.90;;;;;;4930808;28;88858;-34
2021/12/03 03:13:42;;;;;;;21.45;19.08;;;0.70;99.90;;;;;;4930398;28;87296;-34
2021/12/03 03:16:08;;;;;;;21.52;18.27;;;0.70;99.90;;;;;;4930964;28;89294;-33
2021/12/03 03:18:34;;;;;;;19.85;17.73;;;0.70;99.90;;;;;;4930763;28;88487;-34
2021/12/03 03:21:02;;;;;;;19.52;17.50;;;0.70;99.90;;;;;;4930994;28;88614;-34
2021/12/03 03:23:28;;;;;;;22.02;19.15;;;0.70;99.90;;;;;;4930256;28;88383;-33
2021/12/03 03:25:54;;;;;;;22.70;20.17;;;0.70;99.90;;;;;;4930077;28;92190;-35
2021/12/03 03:28:21;;;;;;;20.92;17.92;;;0.70;99.90;;;;;;4913370;28;89146;-33
2021/12/03 03:30:49;;;;;;;21.42;19.17;;;0.70;99.90;;;;;;4930915;28;88470;-34
2021/12/03 03:33:16;;;;;;;20.60;18.50;;;0.70;99.90;;;;;;4931207;28;88575;-33
2021/12/03 03:35:43;;;;;;;19.80;17.65;;;0.70;99.90;;;;;;4928693;28;89890;-35
2021/12/03 03:38:10;;;;;;;21.42;18.77;;;0.70;99.90;;;;;;4913961;28;88689;-33
2021/12/03 03:40:38;;;;;;;20.45;18.52;;;0.70;99.90;;;;;;4931005;28;88952;-35
2021/12/03 03:43:04;;;;;;;20.17;18.15;;;0.70;99.90;;;;;;4930431;28;87780;-34
2021/12/03 03:45:31;;;;;;;21.38;18.42;;;0.70;99.90;;;;;;4930234;28;88877;-33
2021/12/03 03:47:57;;;;;;;21.45;18.88;;;0.70;99.90;;;;;;4930438;28;89627;-33
2021/12/03 03:50:24;;;;;;;22.95;20.58;;;0.70;99.90;;;;;;4929543;28;89503;-34
2021/12/03 03:52:53;;;;;;;25.53;19.17;;;0.60;99.90;;;;;;4929792;28;88650;-34
2021/12/03 03:55:21;;;;;;;22.58;19.33;;;0.60;99.90;;;;;;4930327;28;89448;-33
2021/12/03 03:57:47;;;;;;;18.42;16.67;;;0.60;99.90;;;;;;4929537;28;88489;-33
2021/12/03 04:00:20;;;;;;;20.17;18.05;;;0.60;99.90;;;;;;4930740;28;89036;-33
2021/12/03 04:02:46;;;;;;;20.60;18.23;;;0.60;99.90;;;;;;4930295;28;88653;-34
2021/12/03 04:05:13;;;;;;;20.23;18.20;;;0.70;99.90;;;;;;4931345;28;89320;-33
2021/12/03 04:07:39;;;;;;;22.70;18.85;;;0.70;99.90;;;;;;4929317;28;88451;-34
2021/12/03 04:10:06;;;;;;;20.65;18.52;;;0.60;99.90;;;;;;4929710;28;89036;-34
2021/12/03 04:12:32;;;;;;;22.20;19.90;;;0.60;99.90;;;;;;4930297;28;88343;-33
2021/12/03 04:14:58;;;;;;;19.55;17.55;;;0.60;99.90;;;;;;4929673;28;89169;-33
2021/12/03 04:17:24;;;;;;;21.75;19.35;;;0.60;99.90;;;;;;4930173;28;88647;-34
2021/12/03 04:19:49;;;;;;;20.55;18.55;;;0.70;99.90;;;;;;4929858;28;89181;-33
2021/12/03 04:22:18;;;;;;;20.58;18.38;;;0.60;99.90;;;;;;4929500;28;88713;-34
2021/12/03 04:24:44;;;;;;;20.05;17.95;;;0.60;99.90;;;;;;4929057;28;90868;-34
2021/12/03 04:27:09;;;;;;;21.23;17.73;;;0.70;99.90;;;;;;4929806;28;89736;-34
2021/12/03 04:29:35;;;;;;;21.75;18.40;;;0.60;99.90;;;;;;4914149;28;88537;-33
2021/12/03 04:32:01;;;;;;;19.92;17.73;;;0.70;99.90;;;;;;4930707;28;87109;-34
2021/12/03 04:34:26;;;;;;;19.92;17.80;;;0.60;99.90;;;;;;4929355;28;89419;-36
2021/12/03 04:36:52;;;;;;;22.55;20.23;;;0.70;99.90;;;;;;4929627;28;89363;-33
2021/12/03 04:39:18;;;;;;;19.25;17.25;;;0.70;99.90;;;;;;4930109;28;90610;-33
2021/12/03 04:41:43;;;;;;;21.08;18.63;;;0.70;99.90;;;;;;4928877;28;88611;-34
2021/12/03 04:44:09;;;;;;;22.08;17.85;;;0.70;99.90;;;;;;4930265;28;88333;-34
2021/12/03 04:46:35;;;;;;;20.15;17.85;;;0.70;99.90;;;;;;4929284;28;87341;-33
2021/12/03 04:49:01;;;;;;;20.50;18.48;;;0.70;99.90;;;;;;4930815;28;89119;-34
2021/12/03 04:51:27;;;;;;;21.83;18.63;;;0.70;99.90;;;;;;4928553;28;88163;-35
2021/12/03 04:53:53;;;;;;;21.23;19.10;;;0.70;99.90;;;;;;4929516;28;89262;-34
2021/12/03 04:56:18;;;;;;;22.45;18.88;;;0.70;99.90;;;;;;4930165;28;88627;-32
2021/12/03 04:58:44;;;;;;;19.58;17.25;;;0.60;99.90;;;;;;4928363;28;88354;-34
2021/12/03 05:01:10;;;;;;;23.63;18.98;;;0.70;99.90;;;;;;4914084;28;89181;-34
2021/12/03 05:03:37;;;;;;;22.00;18.80;;;0.70;99.90;;;;;;4932479;28;89394;-33
2021/12/03 05:06:04;;;;;;;20.58;18.10;;;0.70;99.90;;;;;;4932576;28;88753;-34
2021/12/03 05:08:31;;;;;;;23.30;18.85;;;0.70;99.90;;;;;;4933142;28;88548;-33
2021/12/03 05:10:57;;;;;;;27.80;20.15;;;0.70;99.90;;;;;;4933208;28;88415;-33
2021/12/03 05:13:26;;;;;;;21.20;19.13;;;0.70;99.90;;;;;;4931454;28;89406;-34
2021/12/03 05:15:52;;;;;;;21.38;19.40;;;0.70;99.90;;;;;;4932882;28;88931;-33
2021/12/03 05:18:20;;;;;;;22.70;20.35;;;0.70;99.90;;;;;;4932871;28;89096;-32
2021/12/03 05:20:48;;;;;;;22.83;20.38;;;0.70;99.90;;;;;;4931714;28;87017;-34
2021/12/03 05:23:14;;;;;;;22.40;19.95;;;0.70;99.90;;;;;;4933001;28;89375;-34
2021/12/03 05:25:41;;;;;;;20.98;18.90;;;0.70;99.90;;;;;;4932161;28;89039;-34
2021/12/03 05:28:07;;;;;;;25.02;20.55;;;0.70;99.90;;;;;;4932864;28;88172;-33
2021/12/03 05:30:33;;;;;;;23.85;21.00;;;0.70;99.90;;;;;;4932211;28;87078;-33
2021/12/03 05:32:59;;;;;;;26.15;22.25;;;0.70;99.90;;;;;;4933259;28;89263;-34
2021/12/03 05:35:26;;;;;;;22.40;20.02;;;0.70;99.90;;;;;;4931355;28;88111;-34
2021/12/03 05:37:51;;;;;;;24.90;20.13;;;0.70;99.90;;;;;;4931372;28;88734;-33
2021/12/03 05:40:18;;;;;;;19.92;17.92;;;0.70;99.90;;;;;;4933231;28;88819;-34
2021/12/03 05:42:45;;;;;;;22.20;20.00;;;0.70;99.90;;;;;;4931333;28;89583;-34
2021/12/03 05:45:13;;;;;;;23.52;19.13;;;0.80;99.90;;;;;;4932322;28;88197;-33
2021/12/03 05:47:39;;;;;;;22.08;19.95;;;0.80;99.90;;;;;;4931735;28;88586;-33
2021/12/03 05:50:06;;;;;;;22.45;18.95;;;0.80;99.90;;;;;;4931450;28;89288;-32
2021/12/03 05:52:32;;;;;;;21.38;19.35;;;0.80;99.90;;;;;;4932203;28;88954;-33
2021/12/03 05:54:57;;;;;;;23.17;19.05;;;0.80;99.90;;;;;;4931752;28;88654;-34
2021/12/03 05:57:23;;;;;;;22.23;19.90;;;0.80;99.90;;;;;;4932285;28;90067;-33
2021/12/03 05:59:49;;;;;;;26.27;20.63;;;0.90;99.90;;;;;;4932328;28;87787;-32
2021/12/03 06:02:14;;;;;;;24.83;19.77;;;0.90;99.90;;;;;;4932508;28;89041;-34
2021/12/03 06:04:40;;;;;;;20.88;18.77;;;0.90;99.90;;;;;;4931242;28;88593;-34
2021/12/03 06:07:06;;;;;;;22.25;19.95;;;0.90;99.90;;;;;;4932167;28;88847;-33
2021/12/03 06:09:32;;;;;;;21.58;19.35;;;0.90;99.90;;;;;;4932714;28;87445;-33
2021/12/03 06:11:59;;;;;;;22.75;20.38;;;0.90;99.90;;;;;;4930680;28;90549;-34
2021/12/03 06:14:25;;;;;;;23.77;21.38;;;0.90;99.90;;;;;;4930976;28;89920;-32
2021/12/03 06:16:51;;;;;;;21.88;17.73;;;0.90;99.90;;;;;;4930616;28;89674;-34
2021/12/03 06:19:16;;;;;;;23.80;21.42;;;0.90;99.90;;;;;;4931314;28;87903;-35
2021/12/03 06:21:42;;;;;;;22.65;19.98;;;0.90;99.90;;;;;;4931456;28;90292;-33
2021/12/03 06:24:07;;;;;;;21.92;19.80;;;0.90;99.90;;;;;;4930939;28;88897;-34
2021/12/03 06:26:33;;;;;;;23.98;19.45;;;0.90;99.90;;;;;;4931856;28;88152;-34
2021/12/03 06:28:59;;;;;;;24.45;20.00;;;0.90;99.90;;;;;;4931098;28;87472;-33
2021/12/03 06:31:24;;;;;;;22.75;20.45;;;0.90;99.90;;;;;;4931098;28;89150;-33
2021/12/03 06:33:50;;;;;;;22.85;20.33;;;0.90;99.90;;;;;;4931276;28;89633;-34
2021/12/03 06:36:16;;;;;;;23.40;19.98;;;0.90;99.90;;;;;;4930931;28;88424;-34
2021/12/03 06:38:42;;;;;;;22.95;20.55;;;0.90;99.90;;;;;;4931134;28;88991;-33
2021/12/03 06:41:08;;;;;;;24.73;22.02;;;1.00;99.90;;;;;;4931196;28;89382;-33
2021/12/03 06:43:34;;;;;;;25.30;21.65;;;1.00;99.90;;;;;;4930356;28;88424;-33
2021/12/03 06:45:59;;;;;;;23.98;19.25;;;1.00;99.90;;;;;;4930581;28;90082;-34
2021/12/03 06:48:25;;;;;;;23.33;20.98;;;1.10;99.90;;;;;;4932063;28;88601;-34
2021/12/03 06:50:52;;;;;;;21.73;17.80;;;1.20;99.90;;;;;;4931763;28;88936;-34
2021/12/03 06:53:22;;;;;;;25.15;20.75;;;1.20;99.90;;;;;;4930561;28;88656;-33
2021/12/03 06:55:53;;;;;;;24.17;21.17;;;1.20;99.90;;;;;;4931043;28;88704;-31
2021/12/03 06:58:20;;;;;;;23.25;21.10;;;1.10;99.90;;;;;;4931565;28;88272;-33
2021/12/03 07:00:50;;;;;;;26.70;20.13;;;1.10;99.90;;;;;;4930675;28;89240;-34
2021/12/03 07:03:15;;;;;;;22.65;19.30;;;1.20;99.90;;;;;;4930559;28;89716;-33
2021/12/03 07:05:41;;;;;;;27.15;20.85;;;1.20;99.90;;;;;;4931458;28;89294;-34
2021/12/03 07:08:07;;;;;;;25.38;19.08;;;1.20;99.90;;;;;;4930903;28;88015;-34
2021/12/03 07:10:33;;;;;;;25.10;22.27;;;1.20;99.90;;;;;;4929313;28;88991;-34
2021/12/03 07:13:00;;;;;;;26.83;22.15;;;1.20;99.90;;;;;;4931411;28;88893;-33
2021/12/03 07:15:25;;;;;;;28.52;21.70;;;1.20;99.90;;;;;;4930475;28;88839;-33
2021/12/03 07:17:51;;;;;;;24.85;22.05;;;1.20;99.90;;;;;;4931089;28;88438;-34
2021/12/03 07:20:19;;;;;;;29.88;22.40;;;1.20;99.90;;;;;;4930625;28;88735;-34
2021/12/03 07:22:45;;;;;;;23.47;19.83;;;1.20;99.90;;;;;;4930270;28;88475;-33
2021/12/03 07:25:11;;;;;;;27.23;21.67;;;1.30;99.90;;;;;;4931047;28;87288;-34
2021/12/03 07:27:37;;;;;;;27.58;23.27;;;1.40;99.90;;;;;;4930057;28;89036;-35
2021/12/03 07:30:04;;;;;;;26.83;21.77;;;1.40;99.90;;;;;;4929998;28;88983;-34
2021/12/03 07:32:31;;;;;;;28.77;24.50;;;1.40;99.90;;;;;;4930287;28;91951;-35
2021/12/03 07:34:57;;;;;;;26.27;22.50;;;1.40;99.90;;;;;;4929726;28;88766;-33
2021/12/03 07:37:23;;;;;;;29.00;22.85;;;1.40;99.90;;;;;;4930528;28;88335;-33
2021/12/03 07:39:49;;;;;;;25.90;21.77;;;1.40;99.90;;;;;;4930767;28;89218;-33
2021/12/03 07:42:15;;;;;;;29.17;23.42;;;1.50;99.90;;;;;;4930739;28;89616;-34
2021/12/03 07:44:41;;;;;;;29.33;26.20;;;1.40;99.90;;;;;;4930592;28;88593;-34
2021/12/03 07:47:07;;;;;;;34.63;25.55;;;1.40;99.90;;;;;;4930921;28;87294;-34
2021/12/03 07:49:33;;;;;;;31.50;23.73;;;1.40;99.90;;;;;;4928406;28;91428;-34
2021/12/03 07:51:58;;;;;;;27.58;23.80;;;1.40;99.90;;;;;;4929842;28;88264;-33
2021/12/03 07:54:25;;;;;;;31.20;26.05;;;1.40;99.90;;;;;;4930936;28;88286;-33
2021/12/03 07:56:51;;;;;;;31.33;26.20;;;1.40;99.90;;;;;;4929764;28;87919;-34
2021/12/03 07:59:17;;;;;;;31.02;24.67;;;1.40;99.90;;;;;;4929590;28;90759;-33
2021/12/03 08:01:46;;;;;;;25.90;23.25;;;1.40;99.90;;;;;;4929215;28;88533;-33
2021/12/03 08:04:12;;;;;;;30.95;25.77;;;1.40;99.90;;;;;;4929119;28;88737;-34
2021/12/03 08:06:40;;;;;;;30.08;26.80;;;1.50;99.90;;;;;;4930297;28;88327;-34
2021/12/03 08:09:07;;;;;;;37.25;27.88;;;1.50;99.90;;;;;;4930491;28;89086;-33
2021/12/03 08:11:33;;;;;;;33.13;24.75;;;1.50;99.90;;;;;;4929177;28;88970;-33
2021/12/03 08:13:59;;;;;;;34.70;26.48;;;1.60;99.90;;;;;;4929883;28;89010;-34
2021/12/03 08:16:25;;;;;;;32.67;26.20;;;1.60;99.90;;;;;;4929254;28;88756;-34
2021/12/03 08:18:51;;;;;;;37.50;24.10;;;1.60;99.90;;;;;;4928806;28;88973;-33
2021/12/03 08:21:16;;;;;;;31.30;24.55;;;1.60;99.90;;;;;;4930082;28;88618;-34
2021/12/03 08:23:42;;;;;;;34.63;26.02;;;1.70;99.90;;;;;;4928853;28;89624;-33
2021/12/03 08:26:08;;;;;;;37.75;26.80;;;1.70;99.90;;;;;;4930188;28;86945;-33
2021/12/03 08:28:34;;;;;;;27.38;20.75;;;1.80;99.90;;;;;;4930475;28;89467;-34
2021/12/03 08:31:00;;;;;;;38.60;29.13;;;1.80;99.90;;;;;;4929537;28;90283;-33
2021/12/03 08:33:26;;;;;;;36.35;29.50;;;1.90;99.90;;;;;;4930509;28;88437;-34
2021/12/03 08:35:52;;;;;;;37.53;27.70;;;1.90;99.90;;;;;;4929911;28;87444;-34
2021/12/03 08:38:18;;;;;;;37.63;30.35;;;1.90;99.90;;;;;;4933533;28;89231;-34
2021/12/03 08:40:44;;;;;;;41.08;31.55;;;1.90;99.90;;;;;;4932449;28;88654;-33
2021/12/03 08:43:09;;;;;;;44.55;33.85;;;1.90;99.90;;;;;;4932841;28;89413;-33
2021/12/03 08:45:37;;;;;;;43.45;30.73;;;1.90;99.90;;;;;;4933594;28;87221;-34
2021/12/03 08:48:04;;;;;;;42.90;30.08;;;2.10;99.90;;;;;;4933705;28;89467;-34
2021/12/03 08:50:33;;;;;;;44.13;33.70;;;2.00;99.90;;;;;;4932643;28;88708;-33
2021/12/03 08:55:29;;;;;;;49.25;34.35;;;2.00;99.90;;;;;;4932087;28;88966;-34
2021/12/03 08:57:56;;;;;;;53.92;35.83;;;2.00;99.90;;;;;;4933797;28;88253;-33
2021/12/03 09:00:22;;;;;;;51.95;35.25;;;2.00;99.90;;;;;;4933140;28;88658;-34
2021/12/03 09:02:48;;;;;;;53.28;39.05;;;2.10;99.90;;;;;;4932672;28;87231;-32
2021/12/03 09:05:14;;;;;;;46.42;33.03;;;2.10;99.90;;;;;;4933271;28;88843;-34
2021/12/03 09:07:41;;;;;;;46.45;34.08;;;2.10;99.90;;;;;;4932360;28;90441;-34
2021/12/03 09:10:11;;;;;;;50.72;36.20;;;2.20;99.90;;;;;;4932873;28;88596;-33
2021/12/03 09:12:37;;;;;;;63.17;37.97;;;2.30;99.90;;;;;;4932672;28;88528;-33
2021/12/03 09:15:06;;;;;;;55.20;35.70;;;2.30;99.90;;;;;;4933443;28;88801;-34
2021/12/03 09:20:22;;;;;;;56.15;38.83;;;2.30;99.90;;;;;;4933144;28;89452;-33
2021/12/03 09:22:51;;;;;;;62.67;35.55;;;2.30;99.90;;;;;;4933576;28;88499;-33
2021/12/03 09:25:29;;;;;;;57.40;39.47;;;2.40;99.90;;;;;;4932439;28;87862;-33
2021/12/03 09:27:55;;;;;;;53.40;37.38;;;2.40;99.90;;;;;;4932198;28;89398;-34
2021/12/03 09:30:21;;;;;;;54.80;37.22;;;2.40;99.90;;;;;;4932401;28;89582;-33
2021/12/03 09:32:52;;;;;;;52.72;38.03;;;2.50;99.90;;;;;;4932554;28;89868;-33
2021/12/03 09:35:18;;;;;;;55.50;36.95;;;2.50;99.90;;;;;;4933045;28;87154;-34
2021/12/03 09:37:43;;;;;;;56.60;37.58;;;2.60;99.90;;;;;;4931436;28;90973;-34
2021/12/03 09:40:18;;;;;;;59.30;39.17;;;2.60;99.90;;;;;;4932666;28;88737;-33
2021/12/03 09:42:43;;;;;;;58.38;37.92;;;2.60;99.90;;;;;;4931570;28;88772;-33
2021/12/03 09:45:09;;;;;;;48.40;37.70;;;2.70;99.90;;;;;;4932799;28;87435;-34
2021/12/03 09:47:35;;;;;;;49.50;36.28;;;2.70;99.90;;;;;;4931106;28;89518;-33
2021/12/03 09:50:04;;;;;;;46.85;33.75;;;2.70;99.90;;;;;;4931294;28;88861;-34
2021/12/03 09:55:00;;;;;;;55.92;37.72;;;2.70;99.90;;;;;;4932512;28;88078;-35
2021/12/03 09:57:39;;;;;;;51.22;32.20;;;2.80;99.90;;;;;;4931805;28;91053;-35
2021/12/03 10:14:12;;;;;;;51.33;32.00;;;2.90;99.90;;;;;;4930319;28;88306;-34
2021/12/03 10:19:21;;;;;;;;;;;3.10;99.90;;;;;;4932879;28;89415;-33
2021/12/03 10:30:23;;;;;;;;;;;3.30;99.90;;;;;;4931916;28;89183;-33
2021/12/03 10:44:09;;;;;;;33.35;21.88;;;3.50;99.90;;;;;;4931424;28;90015;-33
2021/12/03 10:47:02;;;;;;;34.92;23.73;;;3.50;99.90;;;;;;4930425;28;88697;-34
2021/12/03 11:14:58;;;;;;;23.35;15.77;;;3.40;99.90;;;;;;4931536;28;89223;-34
2021/12/03 11:55:16;;;;;;;11.05;6.95;;;3.50;99.90;;;;;;4934967;28;87983;-33
2021/12/03 12:12:34;;;;;;;17.67;10.23;;;3.30;99.90;;;;;;4934325;28;88276;-34
2021/12/03 12:34:49;;;;;;;11.80;8.57;;;3.10;99.90;;;;;;4932980;28;88497;-35
2021/12/03 12:37:21;;;;;;;19.10;9.27;;;3.10;99.90;;;;;;4909323;28;90433;-33
2021/12/03 12:40:13;;;;;;;12.15;8.05;;;3.10;99.90;;;;;;4923861;28;89189;-34
2021/12/03 12:43:30;;;;;;;9.50;7.95;;;3.10;99.90;;;;;;4909310;28;90100;-33
2021/12/03 12:48:09;;;;;;;11.00;8.85;;;3.10;99.90;;;;;;4909799;28;89119;-33
2021/12/03 13:24:47;;;;;;;23.48;10.52;;;3.20;99.90;;;;;;4970931;28;87747;-34
2021/12/03 13:38:49;;;;;;;15.77;10.63;;;3.40;99.90;;;;;;4969958;28;89259;-33
2021/12/03 14:07:36;;;;;;;13.75;9.45;;;3.60;99.90;;;;;;4969510;28;87512;-34
2021/12/03 14:14:03;;;;;;;17.95;11.93;;;3.60;99.90;;;;;;4969757;28;88601;-33
2021/12/03 14:32:08;;;;;;;16.55;11.15;;;3.70;99.90;;;;;;4968830;28;88444;-34
2021/12/03 14:39:50;;;;;;;12.57;10.23;;;3.60;99.90;;;;;;4969796;28;88263;-34
2021/12/03 14:41:59;;;;;;;12.80;10.27;;;3.60;99.90;;;;;;4963934;28;87493;-34
2021/12/03 14:49:45;;;;;;;16.58;9.77;;;3.70;99.90;;;;;;4968757;28;88939;-34
2021/12/03 14:52:17;;;;;;;17.20;9.13;;;3.70;99.90;;;;;;4970063;28;87826;-34
2021/12/03 14:57:28;;;;;;;13.15;9.48;;;3.80;99.90;;;;;;4968573;28;89286;-34
2021/12/03 15:00:10;;;;;;;15.82;9.93;;;3.90;99.90;;;;;;4952958;28;90218;-34
2021/12/03 15:08:18;;;;;;;11.35;8.15;;;3.90;99.90;;;;;;4935323;28;89655;-34
2021/12/03 15:11:19;;;;;;;13.05;9.02;;;4.00;99.90;;;;;;4967817;28;87768;-34
2021/12/03 15:26:55;;;;;;;15.38;10.20;;;4.10;99.90;;;;;;4969435;28;89124;-33
2021/12/03 15:32:07;;;;;;;10.93;7.75;;;4.10;99.90;;;;;;4968677;28;89056;-30
2021/12/03 16:04:19;;;;;;;13.70;9.50;;;4.40;99.90;;;;;;4968242;28;88478;-33
2021/12/03 16:07:14;;;;;;;9.27;8.35;;;4.50;99.90;;;;;;4968202;28;87913;-34
2021/12/03 16:15:20;;;;;;;10.35;9.45;;;4.40;99.90;;;;;;4970954;28;88662;-34
2021/12/03 16:48:26;;;;;;;11.07;10.05;;;4.30;99.90;;;;;;4968050;28;89652;-34
2021/12/03 16:53:29;;;;;;;11.50;10.30;;;4.40;99.90;;;;;;4967156;28;89162;-35
2021/12/03 16:56:10;;;;;;;13.07;11.70;;;4.40;99.90;;;;;;4965981;28;89266;-33
2021/12/03 16:58:38;;;;;;;10.55;9.00;;;4.40;99.90;;;;;;4970046;28;89840;-34
2021/12/03 17:01:18;;;;;;;11.27;10.20;;;4.50;99.90;;;;;;4972041;28;88285;-34
2021/12/03 17:10:01;;;;;;;12.80;11.50;;;4.40;99.90;;;;;;4972021;28;88661;-34
2021/12/03 17:12:30;;;;;;;13.90;11.23;;;4.40;99.90;;;;;;4969397;28;87200;-34
2021/12/03 17:15:23;;;;;;;16.13;11.13;;;4.30;99.90;;;;;;4969327;28;88606;-34
2021/12/03 17:21:12;;;;;;;12.65;11.35;;;4.40;99.90;;;;;;4968891;28;88142;-34
2021/12/03 17:53:23;;;;;;;17.02;14.20;;;4.30;99.90;;;;;;4964265;28;88313;-33
2021/12/03 17:58:36;;;;;;;15.95;14.35;;;4.30;99.90;;;;;;4967890;28;89294;-35
2021/12/03 18:01:10;;;;;;;14.98;13.45;;;4.40;99.90;;;;;;4970031;28;89582;-34
2021/12/03 18:09:05;;;;;;;16.27;14.13;;;4.40;99.90;;;;;;4960893;28;89459;-34
2021/12/03 18:17:29;;;;;;;13.80;12.05;;;4.40;99.90;;;;;;4983263;28;87682;-34
2021/12/03 18:45:10;;;;;;;18.88;16.88;;;4.50;99.90;;;;;;4975324;28;88714;-33
2021/12/03 18:53:15;;;;;;;20.08;17.92;;;4.40;99.90;;;;;;4975796;28;89245;-34
2021/12/03 18:55:45;;;;;;;19.52;15.38;;;4.50;99.90;;;;;;4977402;28;87475;-33
2021/12/03 18:58:11;;;;;;;22.08;19.45;;;4.40;99.90;;;;;;4975532;28;89651;-32
2021/12/03 19:00:43;;;;;;;24.38;18.33;;;4.50;99.90;;;;;;4975172;28;87724;-34
2021/12/03 19:03:27;;;;;;;16.73;13.75;;;4.40;99.90;;;;;;4974090;28;90614;-33
2021/12/03 19:06:17;;;;;;;19.80;17.80;;;4.50;99.90;;;;;;4974413;28;88873;-34
2021/12/03 19:08:50;;;;;;;22.63;19.10;;;4.60;99.90;;;;;;4976879;28;88493;-36
2021/12/03 19:11:23;;;;;;;23.08;20.58;;;4.50;99.90;;;;;;4975517;28;87536;-35
2021/12/03 19:13:50;;;;;;;25.83;20.33;;;4.60;99.90;;;;;;4972697;28;87883;-34
2021/12/03 19:16:21;;;;;;;23.15;19.73;;;4.50;99.90;;;;;;4962170;28;88727;-34
2021/12/03 19:18:49;;;;;;;22.75;20.55;;;4.50;99.90;;;;;;4971781;28;88577;-34
2021/12/03 19:21:22;;;;;;;25.60;20.40;;;4.50;99.90;;;;;;4957110;28;87482;-34
2021/12/03 19:23:55;;;;;;;23.52;20.77;;;4.50;99.90;;;;;;4955852;28;89236;-34
2021/12/03 19:26:21;;;;;;;23.70;21.20;;;4.60;99.90;;;;;;4956196;28;89467;-35
2021/12/03 19:28:49;;;;;;;23.92;20.42;;;4.60;99.90;;;;;;4953661;28;89118;-35
2021/12/03 19:31:15;;;;;;;21.80;19.23;;;4.60;99.90;;;;;;4962835;28;87858;-33
2021/12/03 19:33:41;;;;;;;22.63;20.23;;;4.50;99.90;;;;;;4952287;28;89407;-32
2021/12/03 19:36:07;;;;;;;25.50;22.77;;;4.50;99.90;;;;;;4953314;28;88554;-34
2021/12/03 19:38:37;;;;;;;28.00;22.52;;;4.50;99.90;;;;;;4954063;28;88117;-34
2021/12/03 19:41:11;;;;;;;24.95;21.92;;;4.50;99.90;;;;;;4953251;28;87492;-34
2021/12/03 19:43:51;;;;;;;22.70;20.33;;;4.50;99.90;;;;;;4952628;28;89274;-35
2021/12/03 19:46:25;;;;;;;24.55;22.00;;;4.40;99.90;;;;;;4953319;28;88833;-33
2021/12/03 19:49:17;;;;;;;23.75;21.27;;;4.50;99.90;;;;;;4970315;28;88509;-34